aviador You're here:

EYVI Decoded Metar

VILNIUS INTL in LITHUANIA
Report Time2017-03-23 03:50:00
UTC Time2017-03-23 04:12:57
Flight Rules vfr VFR
Wind160° at 04 kt
W.Decomp.*RWY 20: 2.8 kt HW 2.9 kt LCW
W.Rank160° ranks 2
Current wind is below 160° avg. (6.9)
Visibility9999 m
Phenomena:N/A
Clouds:N/A
Expected CloudBase > 800 ft AGL from Temp-Dew spread
CeilingNone
Temp-3°C (ISA -17)
Dew Point-5°C (86% RH)
AAT-7.1°C
QNH1023 hPa
Density Alt-1,690 ft
Elevation646 ft
Report Wrong Elevation
Raw Report
EYVI 230350Z 16004KT CAVOK M03/M05 Q1023 R19/0///95 NOSIG=

Extra information for EYVI:More info

Metar Taf Metar & Taf Last 4 Metars F.Rules Stats Wind Profile Meteogram Temp Stats Airport Information Weather charts Add Link Nearby VenuesMetar ALERT Operation Metar Decoded Social comments